Flugplatz Memmingen Allgau

Bericht für EDJA

vom 23.02. um 23:20 UTC

Wind 23 kt aus 260° in Böen 36 kt

Sichtweite 10 km oder mehr

aufgebrochene Bewölkung in 3300 ft

bedeckt in 4100 ft

Temperatur 13.0°C

Taupunkt 6.0°C

Luftfeuchtigkeit 62%

Luftdruck 1022 hPa

EDJA 232320Z AUTO 26023G36KT 9999 // BKN033/// OVC041/// 13/06 Q1022

Prognose für EDJA

vom 23.02. um 00:00 UTC

Am 23.02. zwischen 00:00 UTC und 00:00 UTC

Wind 25 kt aus 230° in Böen 35 kt

Sichtweite 10 km oder mehr

keine signifikanten Wettererscheinungen

keine Wolken


Am 23.02. zwischen 00:00 UTC und 00:00 UTC zeitweise

Sichtweite 3500 m

Regen

aufgebrochene Bewölkung in 800 ft


Zwischen 00:00 und 00:00 UTC übergehend zu

Wind 15 kt aus 280° in Böen 25 kt

Sichtweite 10 km oder mehr

keine signifikanten Wettererscheinungen

keine Wolken

TAF EDJA 231700Z 2318/2403 23025G35KT CAVOK TEMPO 2323/2403 3500 RA BKN008 BECMG 2400/2403 28015G25KT
Impressum